Time;durP1;ratioP1;P1;durP2;ratioP2;P2;SDS_P1;SDS_P2;PMS_P1;PMS_P2;Temp;Humidity;BMP_temperature;BMP_pressure;BME280_temperature;BME280_humidity;BME280_pressure;Samples;Min_cycle;Max_cycle;Signal;HPM_P1;HPM_P2
2022/07/03 00:00:43;;;;;;;;;;;;;;;28.81;40.70;94581.31;5014239;28;7497;-62
2022/07/03 00:03:09;;;;;;;;;;;;;;;28.80;40.52;94580.56;5009846;28;9326;-61
2022/07/03 00:05:36;;;;;;;;;;;;;;;28.82;40.75;94586.31;4997681;28;7299;-62
2022/07/03 00:08:10;;;;;;;;;;;;;;;28.81;40.68;94586.84;5005537;28;9204;-62
2022/07/03 00:10:36;;;;;;;;;;;;;;;28.82;40.64;94586.31;5008229;28;7032;-62
2022/07/03 00:13:02;;;;;;;;;;;;;;;28.79;40.67;94581.09;5013776;28;9514;-62
2022/07/03 00:15:28;;;;;;;;;;;;;;;28.79;40.77;94587.38;5010036;28;9276;-62
2022/07/03 00:17:54;;;;;;;;;;;;;;;28.78;39.95;94585.88;5004853;28;10344;-62
2022/07/03 00:20:44;;;;;;;;;;;;;;;28.79;40.41;94583.88;4995256;28;9390;-61
2022/07/03 00:23:18;;;;;;;;;;;;;;;28.78;40.49;94583.13;4991186;28;7184;-61
2022/07/03 00:25:45;;;;;;;;;;;;;;;28.76;40.22;94582.91;5009486;28;7253;-62
2022/07/03 00:28:11;;;;;;;;;;;;;;;28.78;40.76;94585.13;5018108;28;9413;-62
2022/07/03 00:30:45;;;;;;;;;;;;;;;28.77;40.75;94589.19;5014631;28;7524;-62
2022/07/03 00:33:17;;;;;;;;;;;;;;;28.76;40.61;94582.91;4982850;28;7241;-62
2022/07/03 00:35:43;;;;;;;;;;;;;;;28.74;40.11;94579.91;4997909;28;7361;-62
2022/07/03 00:38:12;;;;;;;;;;;;;;;28.75;40.53;94580.66;4999713;28;7022;-62
2022/07/03 00:40:39;;;;;;;;;;;;;;;28.76;40.73;94571.81;4982150;28;7226;-62
2022/07/03 00:43:11;;;;;;;;;;;;;;;28.75;40.66;94575.13;5014764;28;7220;-62
2022/07/03 00:45:48;;;;;;;;;;;;;;;28.73;40.44;94577.69;4992027;28;7244;-62
2022/07/03 00:48:16;;;;;;;;;;;;;;;28.72;40.27;94576.16;5009058;28;9260;-62
2022/07/03 00:50:48;;;;;;;;;;;;;;;28.71;40.70;94574.69;4995870;28;7088;-61
2022/07/03 00:53:23;;;;;;;;;;;;;;;28.70;40.87;94573.94;4996536;28;7212;-62
2022/07/03 00:55:52;;;;;;;;;;;;;;;28.69;40.58;94575.19;4996103;28;7121;-62
2022/07/03 00:58:19;;;;;;;;;;;;;;;28.70;40.42;94573.19;4998755;28;9102;-62
2022/07/03 01:00:49;;;;;;;;;;;;;;;28.68;40.31;94570.19;4999399;28;9583;-61
2022/07/03 01:03:19;;;;;;;;;;;;;;;28.68;40.46;94575.72;5017379;28;6996;-62
2022/07/03 01:05:54;;;;;;;;;;;;;;;28.68;40.47;94582.03;5017612;28;7257;-62
2022/07/03 01:08:43;;;;;;;;;;;;;;;28.67;40.60;94571.47;5001161;28;7258;-62
2022/07/03 01:11:32;;;;;;;;;;;;;;;28.67;40.55;94569.44;5002813;28;7002;-61
2022/07/03 01:14:11;;;;;;;;;;;;;;;28.68;40.47;94572.97;5009950;28;9508;-62
2022/07/03 01:16:44;;;;;;;;;;;;;;;28.68;40.50;94578.50;4994562;28;7289;-62
2022/07/03 01:19:32;;;;;;;;;;;;;;;28.66;40.45;94573.50;5012767;28;7149;-62
2022/07/03 01:22:26;;;;;;;;;;;;;;;28.66;40.30;94567.97;5002760;28;7078;-62
2022/07/03 01:25:11;;;;;;;;;;;;;;;28.63;40.51;94563.47;4992561;28;9366;-62
2022/07/03 01:27:52;;;;;;;;;;;;;;;28.64;40.38;94564.97;4995998;28;9091;-62
2022/07/03 01:30:20;;;;;;;;;;;;;;;28.65;40.32;94576.78;5001419;28;7071;-62
2022/07/03 01:33:09;;;;;;;;;;;;;;;28.64;40.53;94573.28;4999627;28;7203;-62
2022/07/03 01:35:39;;;;;;;;;;;;;;;28.65;40.48;94582.31;4987475;28;9112;-62
2022/07/03 01:38:12;;;;;;;;;;;;;;;28.64;40.84;94575.31;4976825;28;9296;-62
2022/07/03 01:40:42;;;;;;;;;;;;;;;28.63;40.60;94573.78;4998162;28;9108;-62
2022/07/03 01:43:12;;;;;;;;;;;;;;;28.61;40.51;94577.09;4995653;28;7010;-62
2022/07/03 01:45:43;;;;;;;;;;;;;;;28.62;40.35;94586.16;4981347;28;7222;-62
2022/07/03 01:48:41;;;;;;;;;;;;;;;28.62;40.45;94575.84;5003304;28;8784;-62
2022/07/03 01:51:34;;;;;;;;;;;;;;;28.64;40.49;94580.84;4928457;28;7160;-62
2022/07/03 01:54:04;;;;;;;;;;;;;;;28.62;40.58;94573.06;4951358;28;7218;-62
2022/07/03 01:56:33;;;;;;;;;;;;;;;28.62;40.13;94578.59;4947132;28;9111;-62
2022/07/03 01:59:03;;;;;;;;;;;;;;;28.63;40.31;94577.31;4951527;28;7411;-62
2022/07/03 02:02:15;;;;;;;;;;;;;;;28.61;40.13;94574.31;4935287;28;9109;-62
2022/07/03 02:04:58;;;;;;;;;;;;;;;28.62;40.29;94572.31;4951113;28;7901;-62
2022/07/03 02:07:49;;;;;;;;;;;;;;;28.60;40.42;94578.34;4934969;28;9613;-62
2022/07/03 02:10:58;;;;;;;;;;;;;;;28.60;40.07;94577.63;4933598;28;7365;-62
2022/07/03 02:13:28;;;;;;;;;;;;;;;28.58;40.22;94572.59;4950527;28;7198;-62
2022/07/03 02:16:21;;;;;;;;;;;;;;;28.59;40.19;94579.66;4950464;28;7050;-62
2022/07/03 02:19:21;;;;;;;;;;;;;;;28.58;40.14;94578.13;4951161;28;8894;-62
2022/07/03 02:22:07;;;;;;;;;;;;;;;28.58;39.95;94583.66;4873039;29;7390;-62
2022/07/03 02:24:44;;;;;;;;;;;;;;;28.57;40.12;94581.41;4875702;29;7220;-62
2022/07/03 02:27:19;;;;;;;;;;;;;;;28.55;40.48;94579.19;4891303;28;8932;-62
2022/07/03 02:30:12;;;;;;;;;;;;;;;28.57;40.21;94581.41;4921092;29;6948;-62
2022/07/03 02:32:46;;;;;;;;;;;;;;;28.56;40.09;94580.66;4914715;28;9057;-62
2022/07/03 02:35:18;;;;;;;;;;;;;;;28.56;39.63;94586.19;4914529;29;7508;-62
2022/07/03 02:38:06;;;;;;;;;;;;;;;28.56;40.23;94579.94;4918265;28;7326;-62
2022/07/03 02:40:56;;;;;;;;;;;;;;;28.56;40.27;94586.19;4931970;28;6866;-62
2022/07/03 02:43:58;;;;;;;;;;;;;;;28.55;40.05;94595.03;4919385;29;9081;-62
2022/07/03 02:49:12;;;;;;;;;;;;;;;28.55;40.15;94595.03;4939544;28;7264;-62
2022/07/03 02:51:49;;;;;;;;;;;;;;;28.55;40.04;94606.09;4933705;28;7241;-62
2022/07/03 02:54:15;;;;;;;;;;;;;;;28.54;40.22;94599.81;4915805;29;9473;-62
2022/07/03 02:57:02;;;;;;;;;;;;;;;28.54;40.21;94602.56;4938173;28;9165;-62
2022/07/03 02:59:58;;;;;;;;;;;;;;;28.54;39.97;94607.34;5010430;28;7630;-62
2022/07/03 03:02:49;;;;;;;;;;;;;;;28.53;40.07;94608.66;4998046;28;7014;-62
2022/07/03 03:05:33;;;;;;;;;;;;;;;28.50;39.74;94609.69;5019510;28;9084;-62
2022/07/03 03:08:14;;;;;;;;;;;;;;;28.50;39.61;94607.66;4995587;28;6961;-62
2022/07/03 03:10:50;;;;;;;;;;;;;;;28.50;40.00;94610.44;5004829;28;7246;-62
2022/07/03 03:13:21;;;;;;;;;;;;;;;28.50;40.01;94615.97;5012359;28;7150;-62
2022/07/03 03:16:07;;;;;;;;;;;;;;;28.50;40.07;94620.75;5001925;28;8134;-62
2022/07/03 03:18:37;;;;;;;;;;;;;;;28.51;39.87;94619.50;4998534;28;9042;-62
2022/07/03 03:21:08;;;;;;;;;;;;;;;28.51;40.11;94622.25;4989592;28;7005;-62
2022/07/03 03:24:04;;;;;;;;;;;;;;;28.50;39.70;94629.81;5016380;28;8749;-62
2022/07/03 03:26:42;;;;;;;;;;;;;;;28.48;39.99;94620.53;5009970;28;7257;-62
2022/07/03 03:29:08;;;;;;;;;;;;;;;28.49;39.73;94625.56;4995835;28;7260;-62
2022/07/03 03:31:39;;;;;;;;;;;;;;;28.48;39.55;94626.06;5014899;28;7031;-62
2022/07/03 03:34:07;;;;;;;;;;;;;;;28.48;39.86;94629.59;5002896;28;9379;-62
2022/07/03 03:36:35;;;;;;;;;;;;;;;28.48;40.02;94628.84;5010874;28;8745;-62
2022/07/03 03:39:02;;;;;;;;;;;;;;;28.48;39.40;94635.13;4994603;28;8000;-62
2022/07/03 03:41:38;;;;;;;;;;;;;;;28.46;39.74;94632.13;4994276;28;9265;-62
2022/07/03 03:44:06;;;;;;;;;;;;;;;28.45;39.61;94627.13;5008456;28;7127;-62
2022/07/03 03:46:38;;;;;;;;;;;;;;;28.46;39.56;94634.16;4996327;28;7126;-62
2022/07/03 03:49:08;;;;;;;;;;;;;;;28.47;39.71;94639.16;4984423;28;9122;-62
2022/07/03 03:51:37;;;;;;;;;;;;;;;28.47;39.68;94635.66;5004351;28;7116;-62
2022/07/03 03:54:04;;;;;;;;;;;;;;;28.47;39.66;94638.41;4993692;28;7058;-62
2022/07/03 03:56:30;;;;;;;;;;;;;;;28.46;39.50;94636.91;4996059;28;9077;-62
2022/07/03 03:58:56;;;;;;;;;;;;;;;28.44;39.61;94629.16;4995807;28;7513;-62
2022/07/03 04:01:24;;;;;;;;;;;;;;;28.44;39.77;94637.44;5016012;28;8311;-62
2022/07/03 04:03:59;;;;;;;;;;;;;;;28.43;39.70;94638.69;5028936;28;6965;-62
2022/07/03 04:06:32;;;;;;;;;;;;;;;28.41;39.63;94632.19;5020591;28;7286;-62
2022/07/03 04:08:58;;;;;;;;;;;;;;;28.44;39.68;94634.69;4994922;28;8759;-62
2022/07/03 04:11:37;;;;;;;;;;;;;;;28.45;39.42;94636.16;4999485;28;9187;-62
2022/07/03 04:14:34;;;;;;;;;;;;;;;28.46;39.65;94642.44;4984660;28;7936;-62
2022/07/03 04:17:13;;;;;;;;;;;;;;;28.44;39.58;94642.22;4889051;29;9252;-62
2022/07/03 04:19:39;;;;;;;;;;;;;;;28.43;39.53;94641.47;4876730;29;7229;-62
2022/07/03 04:22:10;;;;;;;;;;;;;;;28.41;39.49;94643.25;4895869;29;7076;-62
2022/07/03 04:24:47;;;;;;;;;;;;;;;28.41;39.80;94641.25;4896469;29;9028;-62
2022/07/03 04:27:26;;;;;;;;;;;;;;;28.41;39.26;94634.97;4893696;29;6939;-62
2022/07/03 04:30:10;;;;;;;;;;;;;;;28.41;39.17;94638.47;4896716;29;9076;-62
2022/07/03 04:32:38;;;;;;;;;;;;;;;28.41;39.01;94641.25;4895072;29;9097;-62
2022/07/03 04:35:14;;;;;;;;;;;;;;;28.41;39.01;94641.25;4897206;29;9020;-62
2022/07/03 04:37:48;;;;;;;;;;;;;;;28.40;39.07;94642.53;4893462;29;7244;-61
2022/07/03 04:40:33;;;;;;;;;;;;;;;28.41;38.79;94641.25;4881198;29;8425;-62
2022/07/03 04:43:19;;;;;;;;;;;;;;;28.40;38.91;94639.75;4893708;29;9021;-62
2022/07/03 04:45:53;;;;;;;;;;;;;;;28.38;39.32;94642.31;4888831;29;7445;-62
2022/07/03 04:48:30;;;;;;;;;;;;;;;28.36;39.03;94644.84;4879144;29;7210;-62
2022/07/03 04:50:58;;;;;;;;;;;;;;;28.37;39.27;94646.34;4878191;29;7243;-62
2022/07/03 04:53:26;;;;;;;;;;;;;;;28.36;38.93;94642.09;4939515;28;7026;-62
2022/07/03 04:55:52;;;;;;;;;;;;;;;28.39;39.38;94632.72;5004339;28;7192;-62
2022/07/03 04:58:21;;;;;;;;;;;;;;;28.41;39.02;94643.25;5009372;28;7410;-62
2022/07/03 05:00:57;;;;;;;;;;;;;;;28.39;39.08;94638.25;5007801;28;8827;-62
2022/07/03 05:03:30;;;;;;;;;;;;;;;28.39;39.35;94643.78;4999840;28;7648;-62
2022/07/03 05:06:05;;;;;;;;;;;;;;;28.40;39.07;94639.75;5013682;28;7245;-62
2022/07/03 05:08:32;;;;;;;;;;;;;;;28.40;39.08;94639.75;4995377;28;9177;-62
2022/07/03 05:11:18;;;;;;;;;;;;;;;28.38;39.01;94648.56;5014316;28;7310;-62
2022/07/03 05:13:55;;;;;;;;;;;;;;;28.40;39.57;94650.84;5012184;28;7280;-62
2022/07/03 05:16:22;;;;;;;;;;;;;;;28.39;39.48;94649.31;4998024;28;8760;-61
2022/07/03 05:18:50;;;;;;;;;;;;;;;28.38;39.38;94650.63;5013439;28;7262;-62
2022/07/03 05:21:24;;;;;;;;;;;;;;;28.35;39.37;94657.19;4997473;28;9089;-62
2022/07/03 05:23:53;;;;;;;;;;;;;;;28.36;39.03;94645.59;4998502;28;9249;-62
2022/07/03 05:26:25;;;;;;;;;;;;;;;28.35;39.02;94657.19;4996248;28;7910;-62
2022/07/03 05:28:55;;;;;;;;;;;;;;;28.33;38.94;94643.13;4960693;28;9103;-62
2022/07/03 05:31:21;;;;;;;;;;;;;;;28.35;38.94;94655.16;5001472;28;7226;-62
2022/07/03 05:33:49;;;;;;;;;;;;;;;28.35;38.82;94654.41;5004209;28;7175;-62
2022/07/03 05:36:15;;;;;;;;;;;;;;;28.37;38.95;94649.09;4995088;28;9006;-62
2022/07/03 05:41:26;;;;;;;;;;;;;;;28.39;38.81;94646.56;5011541;28;9668;-62
2022/07/03 05:43:52;;;;;;;;;;;;;;;28.36;39.59;94644.84;5012603;28;7266;-62
2022/07/03 05:46:18;;;;;;;;;;;;;;;28.37;39.18;94640.81;5009978;28;9081;-62
2022/07/03 05:48:45;;;;;;;;;;;;;;;28.38;39.28;94647.84;4993167;28;6971;-62
2022/07/03 05:51:13;;;;;;;;;;;;;;;28.38;39.18;94645.06;5022573;28;9575;-62
2022/07/03 05:53:39;;;;;;;;;;;;;;;28.38;39.10;94642.31;4996929;28;9148;-62
2022/07/03 05:56:07;;;;;;;;;;;;;;;28.40;38.61;94644.53;5015505;28;7171;-62
2022/07/03 05:58:33;;;;;;;;;;;;;;;28.36;38.87;94648.34;5019318;28;7009;-62
2022/07/03 06:01:04;;;;;;;;;;;;;;;28.35;39.14;94644.09;4995184;28;7280;-62
2022/07/03 06:03:31;;;;;;;;;;;;;;;28.34;39.32;94647.38;5000275;28;8760;-63
2022/07/03 06:05:59;;;;;;;;;;;;;;;28.33;39.23;94640.34;4997970;28;6990;-62
2022/07/03 06:08:29;;;;;;;;;;;;;;;28.30;39.16;94650.44;5009080;28;8463;-62
2022/07/03 06:10:56;;;;;;;;;;;;;;;28.30;39.23;94650.44;4980177;28;9570;-62
2022/07/03 06:13:22;;;;;;;;;;;;;;;28.29;39.19;94657.25;4995980;28;9623;-63
2022/07/03 06:15:48;;;;;;;;;;;;;;;28.27;38.98;94651.47;4993381;28;7409;-62
2022/07/03 06:18:14;;;;;;;;;;;;;;;28.26;39.46;94650.00;5014379;28;7255;-62
2022/07/03 06:20:45;;;;;;;;;;;;;;;28.28;39.29;94649.47;5005483;28;7610;-62
2022/07/03 06:23:11;;;;;;;;;;;;;;;28.28;39.31;94647.47;4994497;28;7244;-63
2022/07/03 06:25:37;;;;;;;;;;;;;;;28.28;38.96;94646.69;4995581;28;7494;-63
2022/07/03 06:28:03;;;;;;;;;;;;;;;28.26;39.46;94649.25;4995825;28;7158;-63
2022/07/03 06:30:29;;;;;;;;;;;;;;;28.25;38.91;94642.97;5011394;28;9307;-63
2022/07/03 06:33:28;;;;;;;;;;;;;;;28.25;39.18;94634.66;4999240;28;9057;-62
2022/07/03 06:35:56;;;;;;;;;;;;;;;28.22;39.63;94641.25;4917728;29;7000;-63
2022/07/03 06:38:32;;;;;;;;;;;;;;;28.21;39.36;94645.28;4912183;29;7011;-63
2022/07/03 06:41:34;;;;;;;;;;;;;;;28.21;38.82;94644.53;4913155;29;7147;-62
2022/07/03 06:44:16;;;;;;;;;;;;;;;28.21;38.83;94636.22;4860152;29;9780;-62
2022/07/03 06:46:43;;;;;;;;;;;;;;;28.24;39.02;94646.25;4840816;29;7439;-63
2022/07/03 06:49:21;;;;;;;;;;;;;;;28.23;39.26;94642.00;4856340;29;7235;-62
2022/07/03 06:51:48;;;;;;;;;;;;;;;28.22;39.04;94630.19;4853169;29;7268;-62
2022/07/03 06:54:16;;;;;;;;;;;;;;;28.25;39.05;94631.16;4850430;29;7001;-62
2022/07/03 06:56:42;;;;;;;;;;;;;;;28.23;39.16;94628.19;4855598;29;6915;-62
2022/07/03 06:59:08;;;;;;;;;;;;;;;28.22;39.24;94630.19;4855243;29;7215;-63
2022/07/03 07:01:37;;;;;;;;;;;;;;;28.21;39.10;94634.22;4856248;29;7357;-62
2022/07/03 07:04:13;;;;;;;;;;;;;;;28.22;39.02;94626.66;4840371;29;9078;-62
2022/07/03 07:06:55;;;;;;;;;;;;;;;28.22;38.75;94626.66;4854960;29;9439;-62
2022/07/03 07:09:36;;;;;;;;;;;;;;;28.19;39.11;94628.47;4855458;29;7656;-62
2022/07/03 07:12:12;;;;;;;;;;;;;;;28.21;39.27;94625.91;4895458;29;7238;-62
2022/07/03 07:14:57;;;;;;;;;;;;;;;28.22;39.11;94621.13;4926151;29;7535;-62
2022/07/03 07:17:28;;;;;;;;;;;;;;;28.23;39.74;94617.84;4948087;28;7010;-62
2022/07/03 07:19:56;;;;;;;;;;;;;;;28.23;39.34;94614.34;4991877;28;9556;-62
2022/07/03 07:22:23;;;;;;;;;;;;;;;28.22;39.41;94619.13;4998892;28;7315;-62
2022/07/03 07:24:52;;;;;;;;;;;;;;;28.22;39.72;94613.59;4990182;28;6992;-62
2022/07/03 07:27:22;;;;;;;;;;;;;;;28.22;39.42;94621.13;4989884;28;9028;-62
2022/07/03 07:30:05;;;;;;;;;;;;;;;28.22;38.78;94607.31;4981430;28;7240;-62
2022/07/03 07:32:39;;;;;;;;;;;;;;;28.22;38.60;94612.84;4995496;28;8088;-62
2022/07/03 07:35:06;;;;;;;;;;;;;;;28.23;38.58;94608.81;4994357;28;7280;-63
2022/07/03 07:37:34;;;;;;;;;;;;;;;28.26;38.02;94610.53;5019959;28;8350;-62
2022/07/03 07:40:06;;;;;;;;;;;;;;;28.24;37.30;94610.28;4996306;28;7638;-62
2022/07/03 07:42:32;;;;;;;;;;;;;;;28.26;37.99;94616.06;5011458;28;7375;-62
2022/07/03 07:45:09;;;;;;;;;;;;;;;28.26;38.26;94613.28;5000520;28;7172;-62
2022/07/03 07:47:36;;;;;;;;;;;;;;;28.26;38.34;94608.50;4978392;28;9430;-62
2022/07/03 07:50:04;;;;;;;;;;;;;;;28.25;38.56;94604.22;5004803;28;9498;-63
2022/07/03 07:52:30;;;;;;;;;;;;;;;28.29;38.76;94613.00;5011366;28;8027;-63
2022/07/03 07:54:56;;;;;;;;;;;;;;;28.30;38.33;94617.25;4992855;28;7296;-63
2022/07/03 07:57:22;;;;;;;;;;;;;;;28.30;38.55;94610.97;4988874;28;6971;-64
2022/07/03 07:59:48;;;;;;;;;;;;;;;28.30;38.53;94614.47;4994409;28;7227;-63
2022/07/03 08:07:45;;;;;;;;;;;;;;;28.31;38.54;94604.16;5012547;28;7211;-63
2022/07/03 08:10:11;;;;;;;;;;;;;;;28.31;38.44;94601.41;4988717;28;7453;-63
2022/07/03 08:12:39;;;;;;;;;;;;;;;28.31;38.56;94595.88;4998614;28;7231;-63
2022/07/03 08:15:05;;;;;;;;;;;;;;;28.30;38.59;94597.88;5016107;28;7222;-63
2022/07/03 08:17:31;;;;;;;;;;;;;;;28.30;38.14;94600.66;4991628;28;9565;-63
2022/07/03 08:19:58;;;;;;;;;;;;;;;28.31;38.31;94604.94;5008828;28;9286;-63
2022/07/03 08:22:25;;;;;;;;;;;;;;;28.32;38.46;94600.13;4996625;28;7913;-63
2022/07/03 08:24:54;;;;;;;;;;;;;;;28.34;38.30;94603.84;4982788;28;9111;-63
2022/07/03 08:27:22;;;;;;;;;;;;;;;28.33;38.76;94609.94;5006645;28;7251;-63
2022/07/03 08:29:58;;;;;;;;;;;;;;;28.33;39.11;94599.63;4995466;28;7947;-62
2022/07/03 08:32:26;;;;;;;;;;;;;;;28.33;39.05;94607.16;5004845;28;7214;-62
2022/07/03 08:34:52;;;;;;;;;;;;;;;28.35;38.93;94604.63;5013101;28;7327;-62
2022/07/03 08:37:19;;;;;;;;;;;;;;;28.34;38.73;94606.63;5011878;28;9254;-62
2022/07/03 08:39:54;;;;;;;;;;;;;;;28.34;38.41;94597.56;5007980;28;9011;-62
2022/07/03 08:42:32;;;;;;;;;;;;;;;28.38;38.58;94604.31;5012491;28;8020;-62
2022/07/03 08:45:30;;;;;;;;;;;;;;;28.40;38.42;94600.28;5011078;28;9040;-63
2022/07/03 08:48:02;;;;;;;;;;;;;;;28.41;38.16;94605.28;4940651;28;7001;-62
2022/07/03 08:51:03;;;;;;;;;;;;;;;28.42;38.18;94604.03;4933413;28;7285;-63
2022/07/03 08:53:32;;;;;;;;;;;;;;;28.45;38.37;94602.22;4908789;29;9117;-63
2022/07/03 08:56:02;;;;;;;;;;;;;;;28.43;38.38;94602.72;4898155;29;7151;-63
2022/07/03 08:58:31;;;;;;;;;;;;;;;28.44;38.39;94609.78;4906037;29;7259;-63
2022/07/03 09:01:00;;;;;;;;;;;;;;;28.44;38.22;94601.47;4908622;29;7453;-63
2022/07/03 09:03:43;;;;;;;;;;;;;;;28.47;38.15;94599.69;4908409;29;7569;-63
2022/07/03 09:06:15;;;;;;;;;;;;;;;28.48;37.73;94590.84;4906761;29;9076;-62
2022/07/03 09:08:41;;;;;;;;;;;;;;;28.50;38.36;94599.38;4911605;29;6978;-62
2022/07/03 09:11:18;;;;;;;;;;;;;;;28.52;37.88;94594.06;4910924;29;8922;-62
2022/07/03 09:13:44;;;;;;;;;;;;;;;28.52;37.55;94593.31;4891640;29;9246;-62
2022/07/03 09:16:17;;;;;;;;;;;;;;;28.50;38.02;94595.84;4890802;29;7066;-62
2022/07/03 09:18:45;;;;;;;;;;;;;;;28.53;37.71;94592.03;4910280;29;8820;-62
2022/07/03 09:21:12;;;;;;;;;;;;;;;28.53;37.21;94592.03;4893040;29;7341;-62
2022/07/03 09:23:51;;;;;;;;;;;;;;;28.54;37.26;94599.81;4915833;28;9131;-62
2022/07/03 09:26:25;;;;;;;;;;;;;;;28.53;36.78;94592.78;4931628;28;7216;-62
2022/07/03 09:28:55;;;;;;;;;;;;;;;28.54;39.71;94590.75;4952292;28;7275;-63
2022/07/03 09:31:42;;;;;;;;;;;;;;;28.55;38.00;94590.25;5008251;28;7058;-62
2022/07/03 09:34:21;;;;;;;;;;;;;;;28.56;38.24;94586.19;5011881;28;6961;-62
2022/07/03 09:36:50;;;;;;;;;;;;;;;28.59;38.01;94593.47;4993987;28;7022;-62
2022/07/03 09:39:36;;;;;;;;;;;;;;;28.61;37.61;94601.25;4991735;28;7177;-62
2022/07/03 09:42:11;;;;;;;;;;;;;;;28.62;37.03;94597.97;4995314;28;9003;-62
2022/07/03 09:44:47;;;;;;;;;;;;;;;28.64;37.06;94603.72;4995138;28;7624;-62
2022/07/03 09:47:17;;;;;;;;;;;;;;;28.65;36.60;94598.91;5009874;28;9249;-62
2022/07/03 09:49:58;;;;;;;;;;;;;;;28.65;36.12;94593.38;5017425;28;9032;-62
2022/07/03 09:52:33;;;;;;;;;;;;;;;28.65;36.74;94591.38;4996337;28;7082;-62
2022/07/03 09:55:01;;;;;;;;;;;;;;;28.65;37.49;94594.13;4998127;28;7270;-62
2022/07/03 09:57:29;;;;;;;;;;;;;;;28.65;37.76;94594.13;4981682;28;7272;-62
2022/07/03 10:00:12;;;;;;;;;;;;;;;28.66;37.61;94587.34;5011579;28;7100;-62
2022/07/03 10:03:12;;;;;;;;;;;;;;;28.66;37.67;94586.59;4998596;28;7001;-62
2022/07/03 10:05:40;;;;;;;;;;;;;;;28.65;37.82;94591.38;4998307;28;8714;-62
2022/07/03 10:08:13;;;;;;;;;;;;;;;28.63;37.53;94587.63;4982136;28;9010;-62
2022/07/03 10:10:42;;;;;;;;;;;;;;;28.64;37.37;94589.88;5007074;28;9382;-62
2022/07/03 10:13:11;;;;;;;;;;;;;;;28.65;37.65;94587.84;5012449;28;9311;-62
2022/07/03 10:15:40;;;;;;;;;;;;;;;28.66;37.63;94586.59;5002860;28;7523;-63
2022/07/03 10:18:20;;;;;;;;;;;;;;;28.68;37.16;94592.34;4981152;28;7055;-62
2022/07/03 10:20:57;;;;;;;;;;;;;;;28.70;36.73;94593.31;4992588;28;8804;-63
2022/07/03 10:23:33;;;;;;;;;;;;;;;28.69;37.31;94589.03;4992815;28;6982;-63
2022/07/03 10:26:12;;;;;;;;;;;;;;;28.67;37.97;94586.06;5009326;28;7205;-63
2022/07/03 10:28:41;;;;;;;;;;;;;;;28.68;38.17;94584.78;4991405;28;9135;-63
2022/07/03 10:31:11;;;;;;;;;;;;;;;28.66;37.57;94579.03;4977162;28;7129;-62
2022/07/03 10:33:38;;;;;;;;;;;;;;;28.68;37.61;94578.50;5015275;28;7107;-63
2022/07/03 10:36:06;;;;;;;;;;;;;;;28.66;37.27;94579.03;5010471;28;7682;-63
2022/07/03 10:38:42;;;;;;;;;;;;;;;28.69;37.52;94580.72;4998509;28;7911;-62
2022/07/03 10:47:37;;;;;;;;;;;;;;;28.72;37.61;94576.16;5006898;28;7886;-63
2022/07/03 10:50:37;;;;;;;;;;;;;;;28.71;37.91;94580.97;5008091;28;9080;-62
2022/07/03 10:53:24;;;;;;;;;;;;;;;28.71;37.90;94574.69;4946175;28;7238;-63
2022/07/03 10:56:06;;;;;;;;;;;;;;;28.69;37.71;94566.91;4932624;29;7208;-62
2022/07/03 10:58:51;;;;;;;;;;;;;;;28.70;38.30;94568.41;4930374;29;7682;-62
2022/07/03 11:01:39;;;;;;;;;;;;;;;28.69;38.07;94572.44;4947898;29;7257;-63
2022/07/03 11:04:19;;;;;;;;;;;;;;;28.69;37.94;94563.38;4949096;29;9742;-63
2022/07/03 11:06:59;;;;;;;;;;;;;;;28.69;37.75;94564.13;4936998;29;7303;-63
2022/07/03 11:09:27;;;;;;;;;;;;;;;28.70;38.17;94560.09;4951907;28;7051;-63
2022/07/03 11:11:58;;;;;;;;;;;;;;;28.70;38.05;94557.34;4952557;28;7065;-63
2022/07/03 11:14:28;;;;;;;;;;;;;;;28.69;38.18;94553.06;4951558;28;8818;-62
2022/07/03 11:17:18;;;;;;;;;;;;;;;28.71;38.05;94558.81;4951766;28;9707;-62
2022/07/03 11:20:23;;;;;;;;;;;;;;;28.70;38.12;94562.88;4954600;28;7275;-63
2022/07/03 11:23:16;;;;;;;;;;;;;;;28.68;38.15;94553.59;4947965;28;6966;-63
2022/07/03 11:26:14;;;;;;;;;;;;;;;28.66;38.18;94553.38;4935868;29;9390;-62
2022/07/03 11:28:40;;;;;;;;;;;;;;;28.65;38.35;94541.56;4905952;29;9041;-63
2022/07/03 11:31:14;;;;;;;;;;;;;;;28.63;38.59;94552.41;4951854;28;7018;-63
2022/07/03 11:33:55;;;;;;;;;;;;;;;28.63;38.59;94538.56;4950353;28;9458;-62
2022/07/03 11:36:31;;;;;;;;;;;;;;;28.63;38.47;94544.09;4941549;28;7290;-62
2022/07/03 11:39:19;;;;;;;;;;;;;;;28.61;38.51;94535.59;4945420;28;9164;-62
2022/07/03 11:42:00;;;;;;;;;;;;;;;28.61;38.46;94534.81;4931862;28;7337;-62
2022/07/03 11:44:27;;;;;;;;;;;;;;;28.59;38.23;94529.81;4928767;29;9404;-62
2022/07/03 11:46:58;;;;;;;;;;;;;;;28.59;38.69;94526.31;4941040;28;7531;-63
2022/07/03 11:49:55;;;;;;;;;;;;;;;28.59;38.57;94518.00;4947788;28;7214;-63
2022/07/03 11:52:33;;;;;;;;;;;;;;;28.58;38.21;94528.31;4898530;29;7255;-62
2022/07/03 11:55:02;;;;;;;;;;;;;;;28.60;38.74;94519.50;4908590;29;6856;-62
2022/07/03 11:57:28;;;;;;;;;;;;;;;28.60;38.30;94523.00;4898410;29;9116;-62
2022/07/03 12:00:08;;;;;;;;;;;;;;;28.57;38.44;94513.00;4915700;29;6992;-63
2022/07/03 12:02:49;;;;;;;;;;;;;;;28.60;38.38;94514.69;4915117;29;7129;-63
2022/07/03 12:05:31;;;;;;;;;;;;;;;28.61;38.83;94510.66;4921496;28;7253;-63
2022/07/03 12:08:05;;;;;;;;;;;;;;;28.60;38.37;94514.69;4936400;28;9125;-63
2022/07/03 12:10:40;;;;;;;;;;;;;;;28.61;38.46;94509.91;4935953;28;7825;-63
2022/07/03 12:13:25;;;;;;;;;;;;;;;28.61;38.80;94505.13;4936129;28;7247;-62
2022/07/03 12:15:52;;;;;;;;;;;;;;;28.62;38.07;94512.19;4953739;28;9037;-62
2022/07/03 12:18:20;;;;;;;;;;;;;;;28.60;38.51;94506.41;4936877;28;7266;-62
2022/07/03 12:21:05;;;;;;;;;;;;;;;28.60;38.66;94502.91;4936927;28;6926;-63
2022/07/03 12:23:52;;;;;;;;;;;;;;;28.60;38.90;94503.63;4950049;28;7281;-63
2022/07/03 12:26:34;;;;;;;;;;;;;;;28.60;38.81;94509.16;4932388;28;6997;-63
2022/07/03 12:29:07;;;;;;;;;;;;;;;28.63;38.51;94507.38;4987212;28;7087;-62
2022/07/03 12:31:38;;;;;;;;;;;;;;;28.63;39.06;94508.13;4990246;28;8814;-62
2022/07/03 12:34:05;;;;;;;;;;;;;;;28.65;38.46;94508.34;4990141;28;7379;-62
2022/07/03 12:36:31;;;;;;;;;;;;;;;28.66;38.61;94507.06;5007721;28;7134;-62
2022/07/03 12:39:09;;;;;;;;;;;;;;;28.68;38.25;94504.53;5010400;28;7275;-62
2022/07/03 12:41:38;;;;;;;;;;;;;;;28.66;37.41;94501.53;5009246;28;7246;-62
2022/07/03 12:44:17;;;;;;;;;;;;;;;28.68;38.55;94499.00;4995629;28;9127;-62
2022/07/03 12:46:45;;;;;;;;;;;;;;;28.71;38.39;94495.16;5012052;28;9191;-62
2022/07/03 12:49:15;;;;;;;;;;;;;;;28.70;38.55;94493.66;5007338;28;7769;-62
2022/07/03 12:51:57;;;;;;;;;;;;;;;28.74;37.74;94485.03;4998961;28;9792;-63
2022/07/03 12:54:33;;;;;;;;;;;;;;;28.74;37.70;94485.78;5012291;28;8932;-62
2022/07/03 13:00:07;;;;;;;;;;;;;;;28.78;38.01;94475.16;4953304;28;7043;-61
2022/07/03 13:02:49;;;;;;;;;;;;;;;28.78;38.10;94480.69;4936548;28;8881;-61
2022/07/03 13:05:22;;;;;;;;;;;;;;;28.84;38.16;94469.53;4936562;28;8093;-62
2022/07/03 13:07:56;;;;;;;;;;;;;;;28.85;38.23;94468.25;4943664;28;9091;-62
2022/07/03 13:10:34;;;;;;;;;;;;;;;28.86;38.20;94462.16;4936916;28;8750;-62
2022/07/03 13:13:17;;;;;;;;;;;;;;;28.87;37.82;94466.44;4938938;28;9060;-62
2022/07/03 13:15:45;;;;;;;;;;;;;;;28.89;37.84;94472.19;4936357;28;9535;-62
2022/07/03 13:18:12;;;;;;;;;;;;;;;28.89;37.88;94458.34;4951247;28;7551;-62
2022/07/03 13:20:38;;;;;;;;;;;;;;;28.90;38.75;94465.38;4947666;28;9096;-62
2022/07/03 13:23:16;;;;;;;;;;;;;;;28.94;38.47;94454.72;4956812;28;7580;-62
2022/07/03 13:25:53;;;;;;;;;;;;;;;29.01;38.44;94458.88;4933862;28;7515;-61
2022/07/03 13:28:19;;;;;;;;;;;;;;;29.03;38.79;94443.25;4938833;28;7179;-62
2022/07/03 13:30:56;;;;;;;;;;;;;;;29.03;38.25;94451.53;4934315;28;7239;-62
2022/07/03 13:33:34;;;;;;;;;;;;;;;29.03;38.49;94457.09;4926377;28;8169;-62
2022/07/03 13:36:09;;;;;;;;;;;;;;;29.05;38.56;94456.53;4951758;28;7195;-62
2022/07/03 13:38:35;;;;;;;;;;;;;;;29.03;38.71;94446.00;4979085;28;7287;-62
2022/07/03 13:41:01;;;;;;;;;;;;;;;29.06;38.50;94453.22;4988556;28;7233;-62
2022/07/03 13:43:31;;;;;;;;;;;;;;;29.07;38.67;94457.50;4986180;28;7391;-62
2022/07/03 13:45:59;;;;;;;;;;;;;;;29.06;38.49;94450.47;5001029;28;7262;-62
2022/07/03 13:48:25;;;;;;;;;;;;;;;29.05;38.99;94454.53;4978129;28;9330;-62
2022/07/03 13:50:51;;;;;;;;;;;;;;;29.07;38.98;94456.75;5004819;28;7219;-62
2022/07/03 13:53:19;;;;;;;;;;;;;;;29.06;38.51;94456.00;5001758;28;7241;-61
2022/07/03 13:55:45;;;;;;;;;;;;;;;29.08;38.77;94450.69;4989563;28;7229;-62